| time (UTC) | temp F | wind direction | speed knots | gust knots | rain 1hr in | rain 24hr in | rain mn in | humidity % | barometer mb |
| 20260906100041 | 74 | 92 | 0.9 | 5.2 | 0.00 | 0.00 | 0.00 | 68 | 1023.7 |
| 20260906093105 | 73 | 236 | 0.9 | 5.2 | 0.00 | 0.00 | 0.00 | 70 | 1023.6 |
| 20260906091548 | 73 | 301 | 0.9 | 5.2 | 0.00 | 0.00 | 0.00 | 69 | 1023.8 |
| 20260906084555 | 73 | 281 | 0.9 | 3.5 | 0.00 | 0.00 | 0.00 | 67 | 1023.8 |
| 20260906083057 | 72 | 259 | 0.0 | 2.6 | 0.00 | 0.00 | 0.00 | 67 | 1023.8 |
| 20260906081543 | 72 | 174 | 0.0 | 3.5 | 0.00 | 0.00 | 0.00 | 73 | 1023.9 |
| 20260906074609 | 68 | 266 | 0.9 | 4.3 | 0.00 | 0.01 | 0.00 | 75 | 1023.8 |
| 20260906071610 | 62 | 175 | 0.0 | 1.7 | 0.00 | 0.01 | 0.00 | 96 | 1023.6 |
| 20260906070046 | 60 | 175 | 0.0 | 1.7 | 0.00 | 0.01 | 0.00 | 96 | 1023.8 |
| 20260906064544 | 58 | 175 | 0.0 | 0.0 | 0.00 | 0.01 | 0.00 | 96 | 1023.7 |
| 20260906061551 | 52 | 175 | 0.0 | 0.0 | 0.00 | 0.01 | 0.00 | 95 | 1023.3 |
| 20260906054555 | 49 | 175 | 0.0 | 0.0 | 0.00 | 0.01 | 0.00 | 95 | 1023.3 |
| 20260906051610 | 48 | 175 | 0.0 | 0.0 | 0.00 | 0.01 | 0.00 | 94 | 1023.0 |
| 20260906050124 | 48 | 175 | 0.0 | 0.0 | 0.00 | 0.01 | 0.00 | 94 | 1022.9 |
| 20260906044551 | 48 | 175 | 0.0 | 0.0 | 0.00 | 0.01 | 0.00 | 93 | 1022.8 |
| 20260906041602 | 49 | 175 | 0.0 | 0.0 | 0.00 | 0.01 | 0.00 | 93 | 1022.5 |
| 20260906040046 | 49 | 175 | 0.0 | 0.0 | 0.00 | 0.01 | 0.00 | 94 | 1022.4 |
| 20260906033108 | 50 | 175 | 0.0 | 0.0 | 0.00 | 0.01 | 0.00 | 94 | 1022.3 |
| 20260906031606 | 50 | 175 | 0.0 | 0.0 | 0.00 | 0.01 | 0.00 | 94 | 1022.1 |
| 20260906030047 | 50 | 175 | 0.0 | 0.0 | 0.00 | 0.01 | 0.00 | 93 | 1021.9 |
| 20260906024544 | 51 | 175 | 0.0 | 0.0 | 0.00 | 0.01 | 0.00 | 94 | 1022.0 |
| 20260906021612 | 50 | 175 | 0.0 | 0.0 | 0.00 | 0.01 | 0.00 | 93 | 1021.9 |
| 20260906020059 | 51 | 175 | 0.0 | 0.0 | 0.00 | 0.01 | 0.00 | 93 | 1021.9 |
| 20260906013101 | 51 | 175 | 0.0 | 0.0 | 0.00 | 0.01 | 0.00 | 93 | 1021.9 |
| 20260906011558 | 51 | 175 | 0.0 | 0.0 | 0.00 | 0.01 | 0.00 | 92 | 1021.9 |
| 20260906004605 | 52 | 175 | 0.0 | 0.0 | 0.00 | 0.01 | 0.00 | 92 | 1021.7 |
| 20260906003040 | 54 | 175 | 0.0 | 0.0 | 0.00 | 0.01 | 0.00 | 93 | 1021.5 |
| 20260906000105 | 54 | 175 | 0.0 | 0.0 | 0.00 | 0.01 | 0.00 | 92 | 1021.5 |
| 20260905233042 | 56 | 175 | 0.0 | 0.0 | 0.00 | 0.01 | 0.00 | 92 | 1021.5 |
| 20260905231544 | 56 | 175 | 0.0 | 0.0 | 0.00 | 0.01 | 0.00 | 92 | 1021.5 |
| 20260905224609 | 57 | 175 | 0.0 | 0.0 | 0.00 | 0.01 | 0.00 | 92 | 1021.5 |
| 20260905223049 | 58 | 175 | 0.0 | 0.0 | 0.00 | 0.01 | 0.00 | 92 | 1021.3 |
| 20260905220205 | 58 | 175 | 0.0 | 1.7 | 0.00 | 0.01 | 0.00 | 94 | 1021.2 |
| 20260905214550 | 57 | 175 | 0.0 | 1.7 | 0.00 | 0.01 | 0.01 | 93 | 1021.2 |
| 20260905211822 | 57 | 175 | 0.0 | 0.0 | 0.00 | 0.01 | 0.01 | 91 | 1020.8 |
| 20260905210107 | 57 | 175 | 0.0 | 0.0 | 0.00 | 0.01 | 0.01 | 91 | 1020.7 |
| 20260905203049 | 59 | 175 | 0.0 | 0.0 | 0.00 | 0.01 | 0.01 | 90 | 1020.5 |
| 20260905200104 | 61 | 175 | 0.0 | 0.0 | 0.00 | 0.01 | 0.01 | 89 | 1020.1 |
| 20260905194552 | 62 | 175 | 0.0 | 1.7 | 0.00 | 0.01 | 0.01 | 88 | 1020.1 |
| 20260905193050 | 63 | 175 | 0.0 | 1.7 | 0.00 | 0.01 | 0.01 | 89 | 1020.1 |
| 20260905191547 | 63 | 175 | 0.0 | 1.7 | 0.00 | 0.01 | 0.01 | 88 | 1019.8 |
| 20260905184612 | 64 | 175 | 0.0 | 1.7 | 0.00 | 0.01 | 0.01 | 88 | 1019.5 |
| 20260905183045 | 65 | 175 | 0.0 | 1.7 | 0.00 | 0.01 | 0.01 | 86 | 1019.4 |
| 20260905181541 | 66 | 175 | 0.9 | 1.7 | 0.00 | 0.01 | 0.01 | 87 | 1019.1 |
| 20260905174622 | 68 | 175 | 0.0 | 1.7 | 0.00 | 0.01 | 0.01 | 84 | 1018.8 |
| 20260905173059 | 68 | 175 | 0.0 | 2.6 | 0.00 | 0.01 | 0.01 | 84 | 1018.6 |
| 20260905170055 | 71 | 197 | 0.9 | 3.5 | 0.00 | 0.01 | 0.01 | 79 | 1018.2 |
| 20260905164545 | 72 | 213 | 0.9 | 2.6 | 0.00 | 0.01 | 0.01 | 78 | 1017.9 |
| 20260905161606 | 75 | 238 | 0.9 | 2.6 | 0.00 | 0.01 | 0.01 | 69 | 1017.7 |
| 20260905160105 | 76 | 275 | 0.9 | 3.5 | 0.00 | 0.01 | 0.01 | 68 | 1017.6 |
| 20260905153039 | 78 | 207 | 0.9 | 4.3 | 0.00 | 0.01 | 0.01 | 63 | 1017.7 |
| 20260905150051 | 79 | 215 | 0.0 | 7.0 | 0.00 | 0.01 | 0.01 | 62 | 1017.6 |
| 20260905143318 | 80 | 267 | 1.7 | 5.2 | 0.00 | 0.01 | 0.01 | 62 | 1017.5 |
| 20260905140054 | 79 | 309 | 1.7 | 6.1 | 0.00 | 0.01 | 0.01 | 63 | 1017.7 |
| 20260905133051 | 80 | 231 | 2.6 | 7.0 | 0.00 | 0.01 | 0.01 | 64 | 1017.6 |
| 20260905131536 | 79 | 275 | 1.7 | 5.2 | 0.00 | 0.01 | 0.01 | 64 | 1017.7 |
| 20260905124600 | 78 | 224 | 0.9 | 4.3 | 0.00 | 0.01 | 0.01 | 63 | 1017.8 |
| 20260905123049 | 77 | 217 | 1.7 | 6.1 | 0.00 | 0.01 | 0.01 | 65 | 1017.9 |
| 20260905120109 | 78 | 161 | 0.9 | 6.1 | 0.00 | 0.01 | 0.01 | 64 | 1018.2 |
| 20260905114606 | 78 | 294 | 3.5 | 7.0 | 0.00 | 0.01 | 0.01 | 62 | 1018.0 |
| 20260905113127 | 78 | 298 | 0.9 | 6.1 | 0.00 | 0.01 | 0.01 | 65 | 1018.0 |
| 20260905111548 | 77 | 161 | 1.7 | 6.1 | 0.00 | 0.01 | 0.01 | 67 | 1018.2 |
| 20260905104615 | 76 | 312 | 0.9 | 3.5 | 0.00 | 0.01 | 0.01 | 67 | 1018.3 |
| 20260905103036 | 75 | 190 | 2.6 | 7.0 | 0.00 | 0.01 | 0.01 | 67 | 1018.3 |